Time;durP1;ratioP1;P1;durP2;ratioP2;P2;SDS_P1;SDS_P2;PMS_P1;PMS_P2;Temp;Humidity;BMP_temperature;BMP_pressure;BME280_temperature;BME280_humidity;BME280_pressure;Samples;Min_cycle;Max_cycle;Signal;HPM_P1;HPM_P2
2023/07/11 00:00:54;;;;;;;7.47;2.60;;;17.40;90.50;;;;;;5070721;28;20032;-46
2023/07/11 00:03:20;;;;;;;8.30;3.42;;;17.40;90.50;;;;;;5063819;28;20044;-46
2023/07/11 00:06:05;;;;;;;8.07;3.45;;;17.40;90.50;;;;;;5071556;28;20059;-47
2023/07/11 00:08:32;;;;;;;8.13;3.03;;;17.40;90.50;;;;;;5041547;28;20028;-46
2023/07/11 00:10:59;;;;;;;4.45;2.40;;;17.40;90.50;;;;;;5072822;28;20043;-45
2023/07/11 00:13:27;;;;;;;8.25;3.15;;;17.40;90.40;;;;;;5056648;28;20374;-46
2023/07/11 00:16:04;;;;;;;7.82;3.55;;;17.40;90.30;;;;;;5056434;28;20622;-46
2023/07/11 00:18:31;;;;;;;10.32;3.92;;;17.40;90.10;;;;;;5063976;28;20064;-45
2023/07/11 00:20:58;;;;;;;9.30;3.78;;;17.30;90.40;;;;;;5035021;28;20147;-47
2023/07/11 00:23:25;;;;;;;8.02;3.85;;;17.30;90.40;;;;;;5050851;28;20044;-46
2023/07/11 00:25:52;;;;;;;8.30;4.03;;;17.30;90.40;;;;;;5033209;28;20552;-47
2023/07/11 00:28:19;;;;;;;7.43;3.63;;;17.30;90.40;;;;;;5052760;28;20017;-45
2023/07/11 00:30:48;;;;;;;6.47;3.60;;;17.40;90.40;;;;;;5039725;28;20111;-46
2023/07/11 00:33:18;;;;;;;7.80;3.75;;;17.40;90.40;;;;;;5052696;28;20043;-45
2023/07/11 00:35:50;;;;;;;;;;;17.40;90.20;;;;;;5050618;28;20037;-47
2023/07/11 00:38:17;;;;;;;9.38;4.35;;;17.40;90.00;;;;;;5031014;28;19912;-46
2023/07/11 00:40:46;;;;;;;10.18;4.50;;;17.40;89.90;;;;;;5052195;28;20454;-46
2023/07/11 00:43:16;;;;;;;11.15;4.22;;;17.40;89.80;;;;;;5051464;28;20040;-45
2023/07/11 00:46:03;;;;;;;8.43;4.30;;;17.30;89.50;;;;;;5042388;28;20029;-46
2023/07/11 00:48:35;;;;;;;9.43;3.15;;;17.30;89.30;;;;;;5032618;28;20056;-45
2023/07/11 00:51:05;;;;;;;9.68;4.18;;;17.30;89.40;;;;;;5048110;28;20025;-46
2023/07/11 00:53:33;;;;;;;10.07;4.05;;;17.30;89.20;;;;;;5051543;28;20036;-48
2023/07/11 00:56:05;;;;;;;7.10;4.00;;;17.30;89.20;;;;;;5050271;28;20029;-46
2023/07/11 00:58:37;;;;;;;9.93;3.63;;;17.30;89.30;;;;;;5042126;28;20112;-46
2023/07/11 01:01:07;;;;;;;8.63;4.55;;;17.30;89.20;;;;;;5040044;28;20350;-45
2023/07/11 01:03:34;;;;;;;;;;;17.40;89.10;;;;;;5045737;28;20030;-45
2023/07/11 01:06:01;;;;;;;10.27;3.35;;;17.40;89.10;;;;;;5046530;28;19921;-46
2023/07/11 01:08:27;;;;;;;8.93;4.45;;;17.40;89.10;;;;;;5053896;28;20032;-50
2023/07/11 01:10:53;;;;;;;18.10;5.55;;;17.40;88.80;;;;;;5026675;28;20026;-46
2023/07/11 01:13:20;;;;;;;12.15;4.22;;;17.40;88.80;;;;;;5036088;28;20041;-46
2023/07/11 01:15:47;;;;;;;9.10;3.95;;;17.40;88.60;;;;;;5039561;28;20346;-47
2023/07/11 01:18:12;;;;;;;8.55;3.20;;;17.40;88.60;;;;;;5059236;28;20051;-48
2023/07/11 01:20:39;;;;;;;8.10;3.40;;;17.40;88.50;;;;;;5075707;28;20436;-46
2023/07/11 01:23:06;;;;;;;13.40;3.95;;;17.40;88.30;;;;;;5072108;28;20060;-46
2023/07/11 01:25:33;;;;;;;10.45;3.70;;;17.40;88.20;;;;;;5074394;28;20032;-46
2023/07/11 01:28:00;;;;;;;10.27;3.50;;;17.40;88.20;;;;;;5074634;28;20035;-46
2023/07/11 01:30:28;;;;;;;5.55;3.17;;;17.40;88.00;;;;;;5072626;28;20021;-46
2023/07/11 01:32:54;;;;;;;8.98;3.60;;;17.40;88.10;;;;;;5071740;28;20025;-48
2023/07/11 01:35:22;;;;;;;9.45;3.22;;;17.40;88.00;;;;;;5074298;28;20047;-46
2023/07/11 01:37:49;;;;;;;10.73;3.63;;;17.40;88.00;;;;;;5074125;28;20036;-46
2023/07/11 01:40:16;;;;;;;11.10;4.00;;;17.50;88.10;;;;;;5067701;28;20121;-46
2023/07/11 01:42:44;;;;;;;13.02;4.53;;;17.50;87.80;;;;;;5054725;28;20025;-46
2023/07/11 01:45:11;;;;;;;9.75;4.22;;;17.50;87.70;;;;;;5069662;28;20040;-46
2023/07/11 01:47:39;;;;;;;13.20;3.92;;;17.40;87.40;;;;;;5068503;28;20051;-47
2023/07/11 01:50:07;;;;;;;10.48;4.20;;;17.40;87.50;;;;;;5056493;28;20028;-46
2023/07/11 01:52:33;;;;;;;10.40;3.90;;;17.40;87.60;;;;;;5074861;28;20036;-47
2023/07/11 01:54:59;;;;;;;8.98;3.03;;;17.40;87.40;;;;;;5074083;28;20028;-47
2023/07/11 01:57:27;;;;;;;9.38;4.35;;;17.40;87.50;;;;;;5069815;28;20047;-48
2023/07/11 01:59:56;;;;;;;10.57;4.35;;;17.40;87.50;;;;;;5067513;28;20033;-46
2023/07/11 02:02:23;;;;;;;7.53;3.42;;;17.40;87.70;;;;;;5072434;28;20028;-48
2023/07/11 02:04:50;;;;;;;5.75;3.15;;;17.40;87.80;;;;;;5073155;28;20374;-46
2023/07/11 02:07:16;;;;;;;8.52;3.78;;;17.40;87.70;;;;;;5053204;28;20090;-46
2023/07/11 02:09:43;;;;;;;8.30;3.60;;;17.40;87.70;;;;;;5065879;28;20020;-46
2023/07/11 02:12:10;;;;;;;7.65;3.95;;;17.40;87.80;;;;;;5074558;28;20028;-46
2023/07/11 02:14:40;;;;;;;8.52;3.70;;;17.40;87.70;;;;;;5055599;28;20029;-48
2023/07/11 02:17:08;;;;;;;11.23;4.88;;;17.40;87.90;;;;;;5072829;28;20027;-46
2023/07/11 02:19:37;;;;;;;7.20;3.47;;;17.30;87.90;;;;;;5073339;28;20083;-46
2023/07/11 02:22:03;;;;;;;10.00;5.03;;;17.30;88.10;;;;;;5072984;28;20032;-47
2023/07/11 02:24:32;;;;;;;9.77;4.03;;;17.30;88.10;;;;;;5071558;28;20092;-47
2023/07/11 02:26:57;;;;;;;11.30;3.45;;;17.40;88.20;;;;;;5071699;28;20033;-47
2023/07/11 02:29:24;;;;;;;10.30;4.22;;;17.30;88.30;;;;;;5075003;28;20024;-45
2023/07/11 02:31:52;;;;;;;9.43;4.43;;;17.40;88.30;;;;;;5065956;28;20036;-46
2023/07/11 02:34:18;;;;;;;11.75;4.78;;;17.40;88.30;;;;;;5072903;28;20033;-47
2023/07/11 02:36:44;;;;;;;5.63;3.83;;;17.40;88.40;;;;;;5055811;28;20043;-48
2023/07/11 02:39:12;;;;;;;7.50;3.40;;;17.40;88.40;;;;;;5056078;28;20040;-47
2023/07/11 02:41:38;;;;;;;8.75;3.00;;;17.40;88.30;;;;;;5065221;28;20036;-46
2023/07/11 02:44:06;;;;;;;8.23;4.22;;;17.40;88.40;;;;;;5069681;28;20035;-47
2023/07/11 02:46:36;;;;;;;7.40;3.58;;;17.40;88.50;;;;;;5073340;28;20025;-46
2023/07/11 02:49:03;;;;;;;8.57;4.03;;;17.40;88.50;;;;;;5070556;28;20029;-48
2023/07/11 02:51:30;;;;;;;6.45;3.22;;;17.40;88.60;;;;;;5056802;28;20056;-47
2023/07/11 02:53:57;;;;;;;9.25;3.83;;;17.40;88.60;;;;;;5073015;28;20028;-47
2023/07/11 02:56:24;;;;;;;8.45;4.47;;;17.30;88.70;;;;;;5073375;28;20036;-49
2023/07/11 02:58:51;;;;;;;8.45;4.40;;;17.30;88.50;;;;;;5051911;28;20130;-46
2023/07/11 03:01:18;;;;;;;6.50;3.85;;;17.30;88.70;;;;;;5069522;28;20025;-47
2023/07/11 03:03:45;;;;;;;6.88;3.30;;;17.20;88.60;;;;;;5072082;28;20090;-47
2023/07/11 03:06:12;;;;;;;9.18;3.47;;;17.20;88.80;;;;;;5066215;28;20398;-47
2023/07/11 03:08:37;;;;;;;9.50;4.15;;;17.20;88.90;;;;;;5053861;28;20024;-47
2023/07/11 03:11:04;;;;;;;9.95;3.80;;;17.10;88.80;;;;;;5066520;28;20457;-46
2023/07/11 03:13:31;;;;;;;10.93;4.35;;;17.10;88.80;;;;;;5071168;28;21916;-49
2023/07/11 03:16:02;;;;;;;6.80;3.50;;;17.10;88.70;;;;;;5065371;28;20166;-48
2023/07/11 03:18:29;;;;;;;6.93;3.17;;;17.00;88.80;;;;;;5047696;28;20041;-48
2023/07/11 03:20:58;;;;;;;8.00;3.70;;;17.00;88.90;;;;;;5052894;28;20044;-46
2023/07/11 03:23:26;;;;;;;7.82;4.30;;;16.90;89.00;;;;;;5041100;28;20078;-46
2023/07/11 03:25:53;;;;;;;5.82;3.67;;;16.90;89.20;;;;;;5041944;28;20450;-46
2023/07/11 03:28:19;;;;;;;9.85;4.90;;;16.90;89.30;;;;;;5051034;28;20055;-46
2023/07/11 03:30:47;;;;;;;7.47;3.83;;;17.00;89.50;;;;;;5044405;28;20326;-48
2023/07/11 03:33:14;;;;;;;9.63;3.20;;;17.00;89.60;;;;;;5051885;28;20028;-50
2023/07/11 03:35:46;;;;;;;11.32;3.17;;;17.00;89.70;;;;;;5036587;28;20395;-47
2023/07/11 03:38:16;;;;;;;8.40;3.90;;;17.10;89.80;;;;;;5033167;28;20127;-46
2023/07/11 03:40:43;;;;;;;9.43;3.33;;;17.10;89.90;;;;;;5033234;28;20037;-46
2023/07/11 03:43:12;;;;;;;9.07;3.67;;;17.20;90.00;;;;;;5047507;28;20060;-47
2023/07/11 03:45:46;;;;;;;13.48;5.57;;;17.20;90.10;;;;;;5052121;28;20056;-47
2023/07/11 03:48:16;;;;;;;10.40;4.28;;;17.30;90.00;;;;;;5031925;28;20116;-46
2023/07/11 03:50:43;;;;;;;8.02;4.18;;;17.30;90.10;;;;;;5051469;28;20029;-47
2023/07/11 03:53:11;;;;;;;11.05;4.82;;;17.40;90.10;;;;;;5052975;28;20656;-47
2023/07/11 03:55:38;;;;;;;10.23;6.03;;;17.40;90.00;;;;;;5033424;28;20037;-47
2023/07/11 03:58:07;;;;;;;8.48;4.25;;;17.40;90.00;;;;;;5051358;28;20041;-47
2023/07/11 04:00:34;;;;;;;9.40;5.15;;;17.40;89.90;;;;;;5050665;28;20026;-47
2023/07/11 04:03:00;;;;;;;10.20;5.38;;;17.40;89.70;;;;;;5032910;28;20692;-46
2023/07/11 04:05:26;;;;;;;10.35;4.75;;;17.50;89.60;;;;;;5048761;28;20030;-48
2023/07/11 04:07:52;;;;;;;9.85;5.57;;;17.50;89.60;;;;;;5053000;28;20102;-48
2023/07/11 04:10:18;;;;;;;10.23;5.20;;;17.60;89.50;;;;;;5051722;28;20040;-47
2023/07/11 04:12:46;;;;;;;12.80;5.07;;;17.70;89.50;;;;;;5047231;28;20040;-47
2023/07/11 04:15:13;;;;;;;8.43;5.07;;;17.70;89.40;;;;;;5051282;28;20025;-46
2023/07/11 04:17:40;;;;;;;11.60;5.63;;;17.80;89.20;;;;;;5051150;28;20473;-47
2023/07/11 04:20:08;;;;;;;10.23;4.45;;;17.90;88.90;;;;;;5068224;28;20033;-49
2023/07/11 04:22:38;;;;;;;12.80;5.13;;;17.90;88.80;;;;;;5069663;28;20098;-47
2023/07/11 04:25:06;;;;;;;10.63;4.63;;;17.90;88.40;;;;;;5065870;28;20105;-47
2023/07/11 04:27:33;;;;;;;10.05;5.15;;;18.00;88.40;;;;;;5072309;28;20017;-47
2023/07/11 04:30:05;;;;;;;10.52;4.88;;;18.00;88.10;;;;;;5069606;28;20025;-49
2023/07/11 04:32:35;;;;;;;10.60;4.32;;;18.10;88.00;;;;;;5067400;28;20049;-48
2023/07/11 04:35:02;;;;;;;10.63;4.35;;;18.10;87.70;;;;;;5069373;28;20035;-52
2023/07/11 04:37:28;;;;;;;7.88;4.20;;;18.10;87.70;;;;;;5073715;28;20469;-47
2023/07/11 04:39:55;;;;;;;7.80;4.25;;;18.20;87.60;;;;;;5075241;28;20032;-47
2023/07/11 04:42:21;;;;;;;8.15;3.90;;;18.20;87.60;;;;;;5073659;28;20024;-49
2023/07/11 04:44:48;;;;;;;7.80;4.30;;;18.20;87.60;;;;;;5073548;28;20101;-48
2023/07/11 04:47:14;;;;;;;10.48;3.92;;;18.30;87.30;;;;;;5074755;28;20033;-47
2023/07/11 04:49:41;;;;;;;10.05;4.40;;;18.30;87.20;;;;;;5073353;28;20017;-49
2023/07/11 04:52:07;;;;;;;9.55;3.97;;;18.40;86.80;;;;;;5057936;28;20419;-47
2023/07/11 04:54:35;;;;;;;9.98;4.47;;;18.40;86.80;;;;;;5073266;28;20016;-49
2023/07/11 04:57:02;;;;;;;7.80;3.85;;;18.50;86.30;;;;;;5072605;28;20056;-47
2023/07/11 04:59:29;;;;;;;7.15;3.55;;;18.60;85.90;;;;;;5075130;28;20083;-48
2023/07/11 05:01:56;;;;;;;8.88;4.20;;;18.70;85.20;;;;;;5073579;28;20063;-49
2023/07/11 05:04:22;;;;;;;10.43;3.47;;;18.80;84.90;;;;;;5068044;28;20144;-49
2023/07/11 05:06:49;;;;;;;7.47;2.95;;;18.80;84.60;;;;;;5073259;28;20063;-50
2023/07/11 05:09:16;;;;;;;6.00;3.15;;;18.90;84.40;;;;;;5072414;28;20031;-51
2023/07/11 05:11:43;;;;;;;9.93;3.35;;;18.90;84.10;;;;;;5071986;28;20345;-48
2023/07/11 05:14:11;;;;;;;9.63;3.33;;;19.00;83.80;;;;;;5074130;28;20017;-51
2023/07/11 05:16:40;;;;;;;6.72;3.00;;;19.10;83.00;;;;;;5064188;28;20739;-47
2023/07/11 05:19:10;;;;;;;8.50;3.53;;;19.20;82.50;;;;;;5072440;28;20501;-48
2023/07/11 05:21:37;;;;;;;11.23;3.20;;;19.40;82.20;;;;;;5074676;28;20071;-50
2023/07/11 05:24:04;;;;;;;8.05;2.97;;;19.40;82.00;;;;;;5076180;28;20060;-48
2023/07/11 05:26:32;;;;;;;10.15;3.75;;;19.50;81.00;;;;;;5062092;28;20037;-48
2023/07/11 05:29:02;;;;;;;6.45;2.80;;;19.60;80.20;;;;;;5048103;28;20349;-48
2023/07/11 05:31:29;;;;;;;7.32;3.03;;;19.60;79.40;;;;;;5066456;28;20692;-49
2023/07/11 05:33:56;;;;;;;7.03;2.50;;;19.70;79.00;;;;;;5069530;28;20106;-54
2023/07/11 05:36:32;;;;;;;10.20;3.58;;;19.80;78.90;;;;;;5073438;28;20028;-51
2023/07/11 05:39:19;;;;;;;5.75;2.55;;;19.90;78.10;;;;;;5074385;28;20108;-51
2023/07/11 05:41:56;;;;;;;5.97;2.45;;;19.90;77.70;;;;;;5074238;28;20040;-49
2023/07/11 05:44:25;;;;;;;4.97;2.72;;;19.90;77.80;;;;;;5073286;28;20051;-48
2023/07/11 05:46:52;;;;;;;6.82;2.65;;;19.90;77.60;;;;;;5072552;28;20021;-51
2023/07/11 05:49:19;;;;;;;6.32;2.47;;;19.90;77.70;;;;;;5071253;28;20027;-49
2023/07/11 05:51:45;;;;;;;6.07;2.92;;;19.90;77.30;;;;;;5074022;28;20102;-51
2023/07/11 05:54:12;;;;;;;8.13;3.40;;;19.90;77.60;;;;;;5070003;28;20021;-50
2023/07/11 05:56:41;;;;;;;8.65;3.53;;;19.90;77.50;;;;;;5066676;28;20452;-48
2023/07/11 05:59:08;;;;;;;6.80;2.92;;;19.90;77.80;;;;;;5072681;28;20028;-51
2023/07/11 06:01:35;;;;;;;7.50;2.95;;;19.80;77.80;;;;;;5073521;28;20043;-51
2023/07/11 06:04:10;;;;;;;7.53;3.10;;;19.80;78.20;;;;;;5068504;28;20078;-50
2023/07/11 06:06:41;;;;;;;6.82;2.78;;;19.90;77.80;;;;;;5061578;28;20043;-48
2023/07/11 06:09:18;;;;;;;7.28;3.05;;;20.00;77.70;;;;;;5072110;28;20038;-49
2023/07/11 06:11:47;;;;;;;6.75;3.03;;;20.20;77.80;;;;;;5074430;28;20125;-48
2023/07/11 06:14:16;;;;;;;5.47;2.53;;;20.30;77.40;;;;;;5068277;28;20029;-49
2023/07/11 06:16:43;;;;;;;9.23;3.50;;;20.40;76.60;;;;;;5072908;28;20447;-49
2023/07/11 06:19:12;;;;;;;5.25;2.45;;;20.50;76.20;;;;;;5072116;28;20052;-49
2023/07/11 06:21:38;;;;;;;9.45;3.08;;;20.70;75.40;;;;;;5064832;28;20040;-49
2023/07/11 06:24:05;;;;;;;8.20;2.88;;;20.90;74.50;;;;;;5070733;28;20032;-49
2023/07/11 06:26:33;;;;;;;7.47;3.10;;;21.10;74.30;;;;;;5072419;28;20044;-49
2023/07/11 06:28:59;;;;;;;6.60;2.78;;;21.10;74.30;;;;;;5055384;28;20052;-49
2023/07/11 06:31:26;;;;;;;8.15;2.40;;;21.20;74.00;;;;;;5060882;28;20078;-49
2023/07/11 06:33:53;;;;;;;6.15;2.80;;;21.40;74.00;;;;;;5067442;28;20020;-51
2023/07/11 06:36:20;;;;;;;6.85;2.58;;;21.40;73.60;;;;;;5073158;28;20078;-51
2023/07/11 06:38:46;;;;;;;6.88;2.83;;;21.50;73.40;;;;;;5056592;28;20519;-49
2023/07/11 06:41:13;;;;;;;6.22;2.85;;;21.50;72.90;;;;;;5065986;28;20033;-49
2023/07/11 06:43:41;;;;;;;4.88;2.80;;;21.60;72.70;;;;;;5071457;28;20036;-52
2023/07/11 06:46:09;;;;;;;6.15;2.50;;;21.70;72.50;;;;;;5070886;28;20031;-49
2023/07/11 06:48:35;;;;;;;5.00;2.20;;;21.70;73.20;;;;;;5054106;28;20029;-49
2023/07/11 06:51:03;;;;;;;6.75;3.33;;;21.80;72.20;;;;;;5055730;28;20028;-51
2023/07/11 06:53:33;;;;;;;5.85;2.80;;;21.90;71.60;;;;;;5069612;28;20451;-50
2023/07/11 06:56:01;;;;;;;7.45;2.55;;;22.00;71.40;;;;;;5061280;28;20071;-50
2023/07/11 06:58:27;;;;;;;5.40;2.25;;;22.10;71.00;;;;;;5072322;28;20036;-50
2023/07/11 07:01:04;;;;;;;8.30;2.50;;;22.20;70.60;;;;;;5068553;28;20072;-49
2023/07/11 07:03:32;;;;;;;4.45;2.25;;;22.20;70.60;;;;;;5041659;28;20031;-55
2023/07/11 07:06:02;;;;;;;5.00;2.25;;;22.30;70.60;;;;;;5029455;28;20056;-50
2023/07/11 07:08:28;;;;;;;8.85;2.53;;;22.40;71.50;;;;;;5066225;28;20017;-49
2023/07/11 07:10:57;;;;;;;5.88;2.53;;;22.60;70.30;;;;;;5068732;28;20051;-48
2023/07/11 07:13:24;;;;;;;;;;;22.60;69.60;;;;;;5068444;28;20093;-50
2023/07/11 07:15:54;;;;;;;5.93;2.42;;;22.80;70.20;;;;;;5064750;28;19908;-49
2023/07/11 07:18:22;;;;;;;7.40;2.50;;;22.80;68.50;;;;;;5066665;28;20140;-50
2023/07/11 07:20:50;;;;;;;6.03;2.20;;;22.90;68.60;;;;;;5054253;28;20044;-51
2023/07/11 07:23:19;;;;;;;6.95;2.53;;;23.20;69.00;;;;;;5069658;28;20024;-51
2023/07/11 07:25:54;;;;;;;9.77;3.25;;;23.40;68.30;;;;;;5047073;28;20044;-53
2023/07/11 07:28:21;;;;;;;8.68;2.67;;;23.60;67.80;;;;;;5063723;28;20017;-48
2023/07/11 07:30:51;;;;;;;5.43;2.65;;;23.80;64.50;;;;;;5050871;28;20028;-48
2023/07/11 07:33:20;;;;;;;8.07;2.65;;;23.90;63.40;;;;;;5050340;28;20024;-49
2023/07/11 07:35:47;;;;;;;9.25;2.33;;;24.20;63.90;;;;;;5064245;28;20420;-49
2023/07/11 07:38:15;;;;;;;6.20;2.30;;;24.70;62.90;;;;;;5067347;28;20031;-46
2023/07/11 07:40:42;;;;;;;4.43;2.03;;;24.90;62.50;;;;;;5065148;28;20083;-50
2023/07/11 07:43:09;;;;;;;8.43;2.78;;;25.00;62.00;;;;;;5063560;28;20402;-48
2023/07/11 07:45:35;;;;;;;6.68;2.67;;;24.90;61.10;;;;;;5069510;28;20036;-47
2023/07/11 07:48:00;;;;;;;9.70;2.50;;;24.90;61.30;;;;;;5067349;28;20082;-49
2023/07/11 07:50:27;;;;;;;6.53;2.25;;;25.10;61.30;;;;;;5067807;28;20025;-48
2023/07/11 07:52:54;;;;;;;9.10;2.88;;;25.10;60.20;;;;;;5064528;28;20083;-49
2023/07/11 07:55:21;;;;;;;5.10;2.35;;;25.30;62.00;;;;;;5061934;28;20107;-46
2023/07/11 07:57:46;;;;;;;9.13;2.95;;;25.20;60.80;;;;;;5046840;28;20032;-46
2023/07/11 08:00:14;;;;;;;4.70;2.22;;;25.20;61.60;;;;;;5062847;28;20094;-48
2023/07/11 08:02:42;;;;;;;5.75;2.53;;;25.10;62.10;;;;;;5063927;28;20059;-49
2023/07/11 08:05:08;;;;;;;8.27;2.78;;;25.10;62.60;;;;;;5067782;28;20031;-48
2023/07/11 08:07:35;;;;;;;5.00;2.45;;;25.30;60.40;;;;;;5066169;28;20067;-47
2023/07/11 08:10:02;;;;;;;7.30;2.60;;;25.40;59.10;;;;;;5031395;28;20036;-50
2023/07/11 08:12:29;;;;;;;8.10;2.80;;;25.30;59.90;;;;;;5062310;28;20060;-50
2023/07/11 08:14:56;;;;;;;5.18;2.25;;;25.30;59.90;;;;;;5065529;28;20029;-50
2023/07/11 08:17:25;;;;;;;7.25;2.22;;;25.60;60.50;;;;;;5066787;28;20495;-48
2023/07/11 08:19:51;;;;;;;6.88;2.42;;;25.40;59.90;;;;;;5067701;28;20040;-49
2023/07/11 08:22:18;;;;;;;5.10;2.30;;;25.40;59.40;;;;;;5067711;28;20135;-51
2023/07/11 08:24:45;;;;;;;4.95;2.22;;;25.30;60.20;;;;;;5047577;28;20474;-50
2023/07/11 08:27:12;;;;;;;6.72;2.38;;;25.30;60.40;;;;;;5066589;28;20036;-51
2023/07/11 08:29:44;;;;;;;6.20;2.78;;;25.50;60.50;;;;;;5046240;28;20127;-47
2023/07/11 08:32:12;;;;;;;4.85;2.25;;;25.70;60.70;;;;;;5063884;28;20021;-47
2023/07/11 08:34:43;;;;;;;6.25;2.60;;;25.70;59.40;;;;;;5066497;28;20027;-47
2023/07/11 08:37:10;;;;;;;5.55;2.33;;;25.50;58.60;;;;;;5065833;28;20033;-49
2023/07/11 08:39:37;;;;;;;7.10;3.08;;;25.60;60.60;;;;;;5062648;28;21282;-46
2023/07/11 08:42:25;;;;;;;5.85;2.47;;;25.80;62.10;;;;;;5049950;28;20032;-50
2023/07/11 08:45:15;;;;;;;5.05;2.58;;;25.90;60.40;;;;;;5066333;28;20053;-49
2023/07/11 08:47:52;;;;;;;10.45;2.47;;;26.00;59.40;;;;;;5066137;28;20350;-52
2023/07/11 08:50:25;;;;;;;5.63;2.15;;;26.00;59.20;;;;;;5065696;28;20029;-47
2023/07/11 08:53:05;;;;;;;5.07;1.95;;;25.90;59.10;;;;;;5064622;28;20454;-51
2023/07/11 08:55:33;;;;;;;7.10;2.22;;;25.90;60.90;;;;;;5066378;28;20347;-47
2023/07/11 08:58:09;;;;;;;5.10;2.28;;;26.00;58.50;;;;;;5065019;28;20024;-50
2023/07/11 09:00:37;;;;;;;4.00;1.75;;;26.20;59.30;;;;;;5062305;28;20603;-48
2023/07/11 09:03:16;;;;;;;4.50;1.88;;;26.20;58.00;;;;;;5064221;28;20102;-47
2023/07/11 09:06:06;;;;;;;7.10;2.75;;;26.20;58.00;;;;;;5046562;28;20025;-50
2023/07/11 09:08:38;;;;;;;5.95;2.28;;;26.10;57.50;;;;;;5063960;28;20032;-47
2023/07/11 09:11:22;;;;;;;5.65;2.05;;;26.10;58.30;;;;;;5061651;28;20032;-47
2023/07/11 09:14:09;;;;;;;4.65;2.00;;;26.20;58.30;;;;;;5063408;28;20028;-47
2023/07/11 09:17:02;;;;;;;6.20;2.50;;;26.20;59.10;;;;;;5064446;28;20036;-46
2023/07/11 09:20:12;;;;;;;8.55;2.88;;;26.30;58.80;;;;;;5037857;28;20434;-46
2023/07/11 09:23:08;;;;;;;8.05;2.40;;;26.20;58.90;;;;;;5033160;28;20117;-50
2023/07/11 09:25:44;;;;;;;15.52;2.70;;;26.30;59.10;;;;;;5067750;28;20037;-52
2023/07/11 09:28:23;;;;;;;10.38;3.15;;;26.40;60.90;;;;;;5067706;28;20058;-49
2023/07/11 09:30:56;;;;;;;4.90;2.65;;;26.70;59.10;;;;;;5068301;28;20040;-52
2023/07/11 09:33:43;;;;;;;5.13;2.53;;;26.90;57.80;;;;;;5064489;28;20060;-49
2023/07/11 09:36:33;;;;;;;5.07;2.83;;;27.40;57.90;;;;;;5069249;28;20052;-48
2023/07/11 09:39:23;;;;;;;5.40;2.90;;;27.40;55.80;;;;;;5069599;28;20107;-46
2023/07/11 09:42:26;;;;;;;18.83;2.78;;;27.80;57.60;;;;;;5069445;28;20039;-48
2023/07/11 09:45:00;;;;;;;7.40;2.47;;;28.30;55.90;;;;;;5051285;28;20044;-49
2023/07/11 09:47:30;;;;;;;5.72;2.38;;;28.20;55.00;;;;;;5068420;28;20050;-47
2023/07/11 09:50:05;;;;;;;5.85;2.58;;;28.60;55.70;;;;;;5063469;28;20027;-50
2023/07/11 09:52:33;;;;;;;3.67;1.98;;;28.80;53.00;;;;;;5067130;28;20029;-52
2023/07/11 09:55:00;;;;;;;4.78;2.20;;;28.80;53.00;;;;;;5067987;28;20025;-53
2023/07/11 09:57:27;;;;;;;5.07;2.08;;;29.00;52.90;;;;;;5064459;28;20120;-52
2023/07/11 10:00:03;;;;;;;4.22;2.05;;;28.90;53.70;;;;;;5069286;28;20029;-49
2023/07/11 10:02:30;;;;;;;4.88;1.92;;;29.20;52.30;;;;;;5050716;28;20029;-50
2023/07/11 10:04:57;;;;;;;5.72;2.45;;;29.50;52.50;;;;;;5065475;28;20033;-47
2023/07/11 10:07:28;;;;;;;7.13;2.95;;;29.30;50.50;;;;;;5049665;28;20033;-47
2023/07/11 10:10:02;;;;;;;5.95;2.85;;;29.30;50.50;;;;;;5054860;28;20412;-49
2023/07/11 10:12:28;;;;;;;5.10;2.20;;;29.30;50.60;;;;;;5066390;28;20204;-49
2023/07/11 10:15:01;;;;;;;5.00;2.13;;;29.40;49.70;;;;;;5048451;28;20029;-47
2023/07/11 10:17:47;;;;;;;4.93;2.30;;;29.40;50.70;;;;;;5067500;28;20429;-48
2023/07/11 10:20:20;;;;;;;6.13;1.92;;;29.20;48.60;;;;;;5051643;28;20128;-51
2023/07/11 10:22:53;;;;;;;6.10;2.92;;;29.20;48.10;;;;;;5053115;28;20036;-51
2023/07/11 10:25:28;;;;;;;4.72;2.20;;;29.30;50.90;;;;;;5051716;28;20119;-48
2023/07/11 10:28:35;;;;;;;9.13;2.60;;;29.20;48.90;;;;;;5068462;28;20397;-49
2023/07/11 10:31:10;;;;;;;4.15;2.22;;;29.00;48.60;;;;;;5032391;28;20078;-49
2023/07/11 10:33:52;;;;;;;9.40;1.83;;;29.00;50.10;;;;;;5068428;28;20167;-48
2023/07/11 10:36:46;;;;;;;5.75;1.80;;;29.30;50.90;;;;;;5068904;28;20028;-51
2023/07/11 10:39:42;;;;;;;6.00;2.13;;;29.80;48.30;;;;;;5067844;28;20047;-53
2023/07/11 10:42:35;;;;;;;4.68;2.53;;;29.90;44.40;;;;;;5039697;28;20047;-50
2023/07/11 10:45:23;;;;;;;4.78;1.92;;;29.90;46.70;;;;;;5049467;28;20075;-52
2023/07/11 10:48:04;;;;;;;6.70;2.42;;;29.70;46.30;;;;;;5067323;28;20338;-51
2023/07/11 10:50:44;;;;;;;3.17;1.67;;;30.00;47.10;;;;;;5066953;28;20031;-51
2023/07/11 10:53:31;;;;;;;7.13;2.40;;;30.30;48.60;;;;;;5067703;28;20037;-55
2023/07/11 10:56:22;;;;;;;5.88;2.30;;;30.30;45.50;;;;;;5068639;28;20086;-53
2023/07/11 10:58:52;;;;;;;4.20;1.58;;;30.20;45.80;;;;;;5070191;28;20052;-49
2023/07/11 11:01:18;;;;;;;4.90;2.20;;;30.10;46.90;;;;;;5064959;28;20040;-50
2023/07/11 11:03:47;;;;;;;14.35;3.08;;;29.80;47.30;;;;;;5059819;28;20032;-51
2023/07/11 11:06:28;;;;;;;4.88;2.00;;;30.10;48.20;;;;;;5062140;28;20029;-49
2023/07/11 11:09:21;;;;;;;6.80;2.30;;;30.30;48.90;;;;;;5063575;28;20458;-52
2023/07/11 11:11:59;;;;;;;6.57;2.13;;;30.00;47.00;;;;;;5066322;28;20070;-53
2023/07/11 11:14:55;;;;;;;4.22;2.38;;;29.80;47.60;;;;;;5060245;28;20449;-52
2023/07/11 11:18:00;;;;;;;6.85;2.53;;;30.10;50.40;;;;;;5065461;28;20105;-48
2023/07/11 11:20:47;;;;;;;6.22;2.10;;;30.10;46.20;;;;;;5066675;28;20047;-50
2023/07/11 11:23:43;;;;;;;5.18;2.22;;;29.80;44.70;;;;;;5035220;28;20044;-52
2023/07/11 11:26:27;;;;;;;5.95;1.90;;;29.90;45.90;;;;;;5066123;28;20052;-50
2023/07/11 11:29:08;;;;;;;8.52;2.42;;;29.90;45.90;;;;;;5068438;28;20036;-50
2023/07/11 11:31:47;;;;;;;7.00;2.13;;;29.50;45.40;;;;;;5062000;28;20783;-53
2023/07/11 11:34:34;;;;;;;5.88;2.35;;;29.10;45.50;;;;;;5068674;28;20029;-52
2023/07/11 11:37:21;;;;;;;4.95;2.10;;;29.00;45.70;;;;;;5064547;28;20024;-52
2023/07/11 11:40:08;;;;;;;7.57;1.90;;;29.10;45.20;;;;;;5066189;28;20032;-53
2023/07/11 11:42:35;;;;;;;5.63;2.00;;;29.20;45.80;;;;;;5059616;28;20028;-51
2023/07/11 11:45:16;;;;;;;6.18;1.92;;;29.40;45.40;;;;;;5065454;28;20033;-47
2023/07/11 11:47:44;;;;;;;4.03;2.13;;;29.30;45.40;;;;;;5050978;28;20032;-50
2023/07/11 11:50:18;;;;;;;7.05;2.50;;;29.30;45.00;;;;;;5066407;28;20484;-53
2023/07/11 11:52:44;;;;;;;7.65;2.42;;;29.40;47.80;;;;;;5050190;28;20028;-50
2023/07/11 11:55:36;;;;;;;3.95;2.13;;;29.70;45.30;;;;;;5034135;28;20515;-53
2023/07/11 11:58:03;;;;;;;3.75;2.03;;;29.50;43.70;;;;;;5063711;28;20063;-51
2023/07/11 12:00:46;;;;;;;3.60;1.90;;;29.40;45.50;;;;;;5065570;28;20036;-52
2023/07/11 12:03:38;;;;;;;4.63;1.75;;;29.40;46.00;;;;;;5065496;28;20029;-54
2023/07/11 12:06:30;;;;;;;5.93;2.00;;;29.20;48.10;;;;;;5063372;28;20028;-52
2023/07/11 12:09:36;;;;;;;4.75;2.08;;;29.00;47.70;;;;;;5067460;28;20024;-49
2023/07/11 12:12:13;;;;;;;4.05;1.95;;;29.20;48.00;;;;;;5063983;28;20036;-50
2023/07/11 12:14:58;;;;;;;7.53;2.53;;;28.90;47.80;;;;;;5064191;28;20082;-47
2023/07/11 12:17:38;;;;;;;4.32;1.98;;;28.90;48.20;;;;;;5065908;28;20128;-54
2023/07/11 12:20:14;;;;;;;6.80;2.20;;;28.70;46.80;;;;;;5047568;28;20421;-58
2023/07/11 12:22:43;;;;;;;7.60;2.38;;;29.00;46.20;;;;;;5067602;28;20381;-54
2023/07/11 12:25:29;;;;;;;12.13;2.95;;;28.90;48.00;;;;;;5062373;28;20048;-52
2023/07/11 12:28:22;;;;;;;4.35;1.90;;;28.90;46.30;;;;;;5066034;28;20076;-51
2023/07/11 12:31:04;;;;;;;7.55;2.45;;;28.90;48.10;;;;;;5064334;28;20066;-49
2023/07/11 12:34:00;;;;;;;8.18;2.28;;;28.90;46.80;;;;;;5066041;28;20107;-55
2023/07/11 12:36:51;;;;;;;3.88;1.90;;;28.80;47.50;;;;;;5064211;28;20028;-50
2023/07/11 12:39:41;;;;;;;5.63;1.80;;;28.60;47.60;;;;;;5062751;28;20389;-55
2023/07/11 12:42:43;;;;;;;7.93;2.42;;;28.80;46.50;;;;;;5064190;28;20020;-50
2023/07/11 12:45:21;;;;;;;6.05;2.08;;;28.80;49.10;;;;;;5063844;28;20036;-49
2023/07/11 12:47:52;;;;;;;4.57;2.17;;;28.80;49.30;;;;;;5064845;28;20040;-49
2023/07/11 12:50:31;;;;;;;3.58;2.00;;;28.90;49.80;;;;;;5065440;28;20021;-53
2023/07/11 12:53:03;;;;;;;4.43;1.92;;;28.90;47.90;;;;;;5065829;28;20040;-50
2023/07/11 12:55:30;;;;;;;4.47;2.15;;;28.90;47.30;;;;;;5061492;28;20032;-50
2023/07/11 12:58:00;;;;;;;6.18;2.05;;;28.80;47.60;;;;;;5067412;28;20036;-51
2023/07/11 13:00:29;;;;;;;7.97;2.28;;;28.60;47.70;;;;;;5069735;28;20028;-53
2023/07/11 13:02:59;;;;;;;;;;;28.60;49.20;;;;;;5068248;28;20028;-48
2023/07/11 13:05:26;;;;;;;4.82;2.25;;;28.60;50.50;;;;;;5067630;28;19916;-50
2023/07/11 13:07:53;;;;;;;4.72;2.05;;;28.60;49.00;;;;;;5066972;28;20350;-50
2023/07/11 13:10:26;;;;;;;5.05;2.28;;;28.50;49.30;;;;;;5072338;28;20092;-51